sensor_id;sensor_type;location;lat;lon;timestamp;P1;durP1;ratioP1;P2;durP2;ratioP2
15595;SDS011;7898;48.658;9.068;2023-06-10T00:00:50;10.80;;;9.70;;
15595;SDS011;7898;48.658;9.068;2023-06-10T00:03:17;11.45;;;10.35;;
15595;SDS011;7898;48.658;9.068;2023-06-10T00:05:44;11.27;;;10.18;;
15595;SDS011;7898;48.658;9.068;2023-06-10T00:08:11;10.52;;;9.52;;
15595;SDS011;7898;48.658;9.068;2023-06-10T00:10:40;11.25;;;9.73;;
15595;SDS011;7898;48.658;9.068;2023-06-10T00:13:07;11.40;;;10.10;;
15595;SDS011;7898;48.658;9.068;2023-06-10T00:15:36;10.65;;;9.57;;
15595;SDS011;7898;48.658;9.068;2023-06-10T00:18:05;11.70;;;10.57;;
15595;SDS011;7898;48.658;9.068;2023-06-10T00:20:35;10.68;;;9.60;;
15595;SDS011;7898;48.658;9.068;2023-06-10T00:23:02;11.57;;;10.48;;
15595;SDS011;7898;48.658;9.068;2023-06-10T00:25:31;12.80;;;10.32;;
15595;SDS011;7898;48.658;9.068;2023-06-10T00:27:58;11.18;;;10.05;;
15595;SDS011;7898;48.658;9.068;2023-06-10T00:30:25;12.13;;;10.65;;
15595;SDS011;7898;48.658;9.068;2023-06-10T00:32:52;12.30;;;11.00;;
15595;SDS011;7898;48.658;9.068;2023-06-10T00:35:20;11.63;;;10.52;;
15595;SDS011;7898;48.658;9.068;2023-06-10T00:37:47;11.07;;;9.98;;
15595;SDS011;7898;48.658;9.068;2023-06-10T00:40:14;10.95;;;9.95;;
15595;SDS011;7898;48.658;9.068;2023-06-10T00:42:41;10.85;;;9.85;;
15595;SDS011;7898;48.658;9.068;2023-06-10T00:45:08;11.10;;;10.07;;
15595;SDS011;7898;48.658;9.068;2023-06-10T00:47:35;11.55;;;10.35;;
15595;SDS011;7898;48.658;9.068;2023-06-10T00:50:02;12.15;;;10.57;;
15595;SDS011;7898;48.658;9.068;2023-06-10T00:52:31;10.15;;;9.20;;
15595;SDS011;7898;48.658;9.068;2023-06-10T00:54:59;11.20;;;10.00;;
15595;SDS011;7898;48.658;9.068;2023-06-10T00:57:26;11.10;;;9.98;;
15595;SDS011;7898;48.658;9.068;2023-06-10T00:59:54;10.68;;;9.57;;
15595;SDS011;7898;48.658;9.068;2023-06-10T01:02:21;10.52;;;9.55;;
15595;SDS011;7898;48.658;9.068;2023-06-10T01:04:48;11.57;;;10.27;;
15595;SDS011;7898;48.658;9.068;2023-06-10T01:07:17;11.02;;;9.82;;
15595;SDS011;7898;48.658;9.068;2023-06-10T01:09:52;11.10;;;10.00;;
15595;SDS011;7898;48.658;9.068;2023-06-10T01:12:27;11.10;;;9.73;;
15595;SDS011;7898;48.658;9.068;2023-06-10T01:14:59;11.32;;;10.13;;
15595;SDS011;7898;48.658;9.068;2023-06-10T01:17:29;10.90;;;9.77;;
15595;SDS011;7898;48.658;9.068;2023-06-10T01:19:56;11.52;;;10.07;;
15595;SDS011;7898;48.658;9.068;2023-06-10T01:22:26;11.50;;;9.60;;
15595;SDS011;7898;48.658;9.068;2023-06-10T01:24:57;11.90;;;10.65;;
15595;SDS011;7898;48.658;9.068;2023-06-10T01:27:25;12.70;;;10.23;;
15595;SDS011;7898;48.658;9.068;2023-06-10T01:29:58;13.20;;;11.30;;
15595;SDS011;7898;48.658;9.068;2023-06-10T01:32:29;11.10;;;10.05;;
15595;SDS011;7898;48.658;9.068;2023-06-10T01:35:01;11.02;;;10.00;;
15595;SDS011;7898;48.658;9.068;2023-06-10T01:37:32;10.75;;;9.65;;
15595;SDS011;7898;48.658;9.068;2023-06-10T01:40:00;11.75;;;10.60;;
15595;SDS011;7898;48.658;9.068;2023-06-10T01:42:30;12.73;;;10.77;;
15595;SDS011;7898;48.658;9.068;2023-06-10T01:44:58;11.48;;;10.27;;
15595;SDS011;7898;48.658;9.068;2023-06-10T01:47:25;11.93;;;10.68;;
15595;SDS011;7898;48.658;9.068;2023-06-10T01:49:52;11.98;;;10.45;;
15595;SDS011;7898;48.658;9.068;2023-06-10T01:52:19;11.40;;;10.07;;
15595;SDS011;7898;48.658;9.068;2023-06-10T01:54:47;10.45;;;9.45;;
15595;SDS011;7898;48.658;9.068;2023-06-10T01:57:14;11.50;;;10.40;;
15595;SDS011;7898;48.658;9.068;2023-06-10T01:59:41;10.93;;;9.85;;
15595;SDS011;7898;48.658;9.068;2023-06-10T02:02:09;11.90;;;10.15;;
15595;SDS011;7898;48.658;9.068;2023-06-10T02:04:36;12.40;;;11.13;;
15595;SDS011;7898;48.658;9.068;2023-06-10T02:07:03;11.05;;;9.98;;
15595;SDS011;7898;48.658;9.068;2023-06-10T02:09:30;12.30;;;10.68;;
15595;SDS011;7898;48.658;9.068;2023-06-10T02:12:01;11.40;;;10.20;;
15595;SDS011;7898;48.658;9.068;2023-06-10T02:14:29;11.23;;;10.05;;
15595;SDS011;7898;48.658;9.068;2023-06-10T02:16:56;12.73;;;11.07;;
15595;SDS011;7898;48.658;9.068;2023-06-10T02:19:23;11.88;;;10.70;;
15595;SDS011;7898;48.658;9.068;2023-06-10T02:21:51;12.38;;;11.18;;
15595;SDS011;7898;48.658;9.068;2023-06-10T02:24:18;12.75;;;11.52;;
15595;SDS011;7898;48.658;9.068;2023-06-10T02:26:45;12.45;;;11.15;;
15595;SDS011;7898;48.658;9.068;2023-06-10T02:29:14;13.30;;;11.95;;
15595;SDS011;7898;48.658;9.068;2023-06-10T02:31:41;12.57;;;11.45;;
15595;SDS011;7898;48.658;9.068;2023-06-10T02:34:08;14.27;;;11.27;;
15595;SDS011;7898;48.658;9.068;2023-06-10T02:36:34;12.27;;;11.07;;
15595;SDS011;7898;48.658;9.068;2023-06-10T02:39:02;14.57;;;11.38;;
15595;SDS011;7898;48.658;9.068;2023-06-10T02:41:29;11.68;;;10.48;;
15595;SDS011;7898;48.658;9.068;2023-06-10T02:43:56;17.13;;;11.45;;
15595;SDS011;7898;48.658;9.068;2023-06-10T02:46:24;12.85;;;10.75;;
15595;SDS011;7898;48.658;9.068;2023-06-10T02:48:51;11.63;;;10.45;;
15595;SDS011;7898;48.658;9.068;2023-06-10T02:51:18;11.63;;;10.52;;
15595;SDS011;7898;48.658;9.068;2023-06-10T02:53:45;11.13;;;10.02;;
15595;SDS011;7898;48.658;9.068;2023-06-10T02:56:13;12.98;;;10.35;;
15595;SDS011;7898;48.658;9.068;2023-06-10T02:58:42;11.50;;;10.40;;
15595;SDS011;7898;48.658;9.068;2023-06-10T03:01:09;13.32;;;10.77;;
15595;SDS011;7898;48.658;9.068;2023-06-10T03:03:37;12.65;;;11.05;;
15595;SDS011;7898;48.658;9.068;2023-06-10T03:06:07;12.20;;;10.63;;
15595;SDS011;7898;48.658;9.068;2023-06-10T03:08:35;12.95;;;11.57;;
15595;SDS011;7898;48.658;9.068;2023-06-10T03:11:02;11.90;;;10.70;;
15595;SDS011;7898;48.658;9.068;2023-06-10T03:13:29;13.65;;;11.57;;
15595;SDS011;7898;48.658;9.068;2023-06-10T03:15:55;13.55;;;12.18;;
15595;SDS011;7898;48.658;9.068;2023-06-10T03:18:26;12.60;;;11.02;;
15595;SDS011;7898;48.658;9.068;2023-06-10T03:20:55;12.25;;;10.98;;
15595;SDS011;7898;48.658;9.068;2023-06-10T03:23:22;11.25;;;10.13;;
15595;SDS011;7898;48.658;9.068;2023-06-10T03:25:49;12.00;;;10.93;;
15595;SDS011;7898;48.658;9.068;2023-06-10T03:28:16;14.07;;;11.25;;
15595;SDS011;7898;48.658;9.068;2023-06-10T03:30:43;12.48;;;10.98;;
15595;SDS011;7898;48.658;9.068;2023-06-10T03:33:10;11.45;;;10.35;;
15595;SDS011;7898;48.658;9.068;2023-06-10T03:35:37;12.30;;;11.00;;
15595;SDS011;7898;48.658;9.068;2023-06-10T03:38:05;11.52;;;10.43;;
15595;SDS011;7898;48.658;9.068;2023-06-10T03:40:32;12.27;;;10.73;;
15595;SDS011;7898;48.658;9.068;2023-06-10T03:42:59;12.35;;;10.93;;
15595;SDS011;7898;48.658;9.068;2023-06-10T03:45:26;11.48;;;10.27;;
15595;SDS011;7898;48.658;9.068;2023-06-10T03:47:54;11.70;;;10.27;;
15595;SDS011;7898;48.658;9.068;2023-06-10T03:50:22;11.80;;;10.70;;
15595;SDS011;7898;48.658;9.068;2023-06-10T03:52:49;12.00;;;10.80;;
15595;SDS011;7898;48.658;9.068;2023-06-10T03:55:18;14.90;;;12.10;;
15595;SDS011;7898;48.658;9.068;2023-06-10T03:57:46;12.43;;;11.07;;
15595;SDS011;7898;48.658;9.068;2023-06-10T04:00:14;12.27;;;11.07;;
15595;SDS011;7898;48.658;9.068;2023-06-10T04:02:42;12.63;;;10.45;;
15595;SDS011;7898;48.658;9.068;2023-06-10T04:05:12;12.45;;;11.15;;
15595;SDS011;7898;48.658;9.068;2023-06-10T04:07:40;13.38;;;10.52;;
15595;SDS011;7898;48.658;9.068;2023-06-10T04:10:07;12.18;;;10.93;;
15595;SDS011;7898;48.658;9.068;2023-06-10T04:12:36;11.90;;;10.60;;
15595;SDS011;7898;48.658;9.068;2023-06-10T04:15:04;13.57;;;11.43;;
15595;SDS011;7898;48.658;9.068;2023-06-10T04:17:32;11.45;;;10.35;;
15595;SDS011;7898;48.658;9.068;2023-06-10T04:19:58;12.70;;;11.35;;
15595;SDS011;7898;48.658;9.068;2023-06-10T04:22:25;11.77;;;10.57;;
15595;SDS011;7898;48.658;9.068;2023-06-10T04:24:52;12.40;;;10.70;;
15595;SDS011;7898;48.658;9.068;2023-06-10T04:27:19;12.70;;;11.43;;
15595;SDS011;7898;48.658;9.068;2023-06-10T04:29:48;11.75;;;10.63;;
15595;SDS011;7898;48.658;9.068;2023-06-10T04:32:14;14.38;;;10.98;;
15595;SDS011;7898;48.658;9.068;2023-06-10T04:34:41;12.00;;;10.88;;
15595;SDS011;7898;48.658;9.068;2023-06-10T04:37:08;13.27;;;11.60;;
15595;SDS011;7898;48.658;9.068;2023-06-10T04:39:35;12.10;;;10.80;;
15595;SDS011;7898;48.658;9.068;2023-06-10T04:42:02;12.00;;;10.70;;
15595;SDS011;7898;48.658;9.068;2023-06-10T04:44:30;13.93;;;10.98;;
15595;SDS011;7898;48.658;9.068;2023-06-10T04:46:58;14.43;;;11.88;;
15595;SDS011;7898;48.658;9.068;2023-06-10T04:49:25;12.90;;;11.32;;
15595;SDS011;7898;48.658;9.068;2023-06-10T04:51:52;12.25;;;11.02;;
15595;SDS011;7898;48.658;9.068;2023-06-10T04:54:22;12.75;;;11.55;;
15595;SDS011;7898;48.658;9.068;2023-06-10T04:56:49;12.65;;;10.60;;
15595;SDS011;7898;48.658;9.068;2023-06-10T04:59:15;12.23;;;11.05;;
15595;SDS011;7898;48.658;9.068;2023-06-10T05:01:42;13.23;;;11.88;;
15595;SDS011;7898;48.658;9.068;2023-06-10T05:04:10;12.00;;;10.90;;
15595;SDS011;7898;48.658;9.068;2023-06-10T05:06:37;13.07;;;11.43;;
15595;SDS011;7898;48.658;9.068;2023-06-10T05:09:04;14.25;;;11.88;;
15595;SDS011;7898;48.658;9.068;2023-06-10T05:11:31;13.43;;;11.68;;
15595;SDS011;7898;48.658;9.068;2023-06-10T05:13:58;12.75;;;11.48;;
15595;SDS011;7898;48.658;9.068;2023-06-10T05:16:24;14.13;;;11.27;;
15595;SDS011;7898;48.658;9.068;2023-06-10T05:18:51;11.82;;;10.60;;
15595;SDS011;7898;48.658;9.068;2023-06-10T05:21:19;14.10;;;11.88;;
15595;SDS011;7898;48.658;9.068;2023-06-10T05:23:46;12.07;;;10.88;;
15595;SDS011;7898;48.658;9.068;2023-06-10T05:26:13;11.63;;;10.52;;
15595;SDS011;7898;48.658;9.068;2023-06-10T05:28:40;11.57;;;10.48;;
15595;SDS011;7898;48.658;9.068;2023-06-10T05:31:07;11.75;;;10.55;;
15595;SDS011;7898;48.658;9.068;2023-06-10T05:33:34;12.93;;;10.40;;
15595;SDS011;7898;48.658;9.068;2023-06-10T05:36:00;13.13;;;9.95;;
15595;SDS011;7898;48.658;9.068;2023-06-10T05:38:29;11.75;;;10.52;;
15595;SDS011;7898;48.658;9.068;2023-06-10T05:40:56;10.82;;;9.73;;
15595;SDS011;7898;48.658;9.068;2023-06-10T05:43:24;10.02;;;9.02;;
15595;SDS011;7898;48.658;9.068;2023-06-10T05:45:50;11.05;;;9.85;;
15595;SDS011;7898;48.658;9.068;2023-06-10T05:48:17;10.52;;;9.48;;
15595;SDS011;7898;48.658;9.068;2023-06-10T05:50:45;9.90;;;8.90;;
15595;SDS011;7898;48.658;9.068;2023-06-10T05:53:13;12.95;;;9.57;;
15595;SDS011;7898;48.658;9.068;2023-06-10T05:55:42;9.60;;;8.70;;
15595;SDS011;7898;48.658;9.068;2023-06-10T05:58:10;11.32;;;7.97;;
15595;SDS011;7898;48.658;9.068;2023-06-10T06:00:37;8.95;;;8.05;;
15595;SDS011;7898;48.658;9.068;2023-06-10T06:03:05;8.30;;;7.28;;
15595;SDS011;7898;48.658;9.068;2023-06-10T06:05:33;11.00;;;8.10;;
15595;SDS011;7898;48.658;9.068;2023-06-10T06:08:02;7.97;;;7.18;;
15595;SDS011;7898;48.658;9.068;2023-06-10T06:10:29;7.53;;;6.82;;
15595;SDS011;7898;48.658;9.068;2023-06-10T06:12:57;10.13;;;7.75;;
15595;SDS011;7898;48.658;9.068;2023-06-10T06:15:25;8.10;;;7.38;;
15595;SDS011;7898;48.658;9.068;2023-06-10T06:17:52;8.23;;;7.53;;
15595;SDS011;7898;48.658;9.068;2023-06-10T06:20:19;9.05;;;7.40;;
15595;SDS011;7898;48.658;9.068;2023-06-10T06:22:45;8.70;;;7.90;;
15595;SDS011;7898;48.658;9.068;2023-06-10T06:25:12;8.57;;;7.78;;
15595;SDS011;7898;48.658;9.068;2023-06-10T06:27:40;8.38;;;7.30;;
15595;SDS011;7898;48.658;9.068;2023-06-10T06:30:09;8.48;;;7.68;;
15595;SDS011;7898;48.658;9.068;2023-06-10T06:32:36;8.63;;;7.82;;
15595;SDS011;7898;48.658;9.068;2023-06-10T06:35:03;9.88;;;7.25;;
15595;SDS011;7898;48.658;9.068;2023-06-10T06:37:33;7.88;;;7.18;;
15595;SDS011;7898;48.658;9.068;2023-06-10T06:40:00;8.68;;;7.43;;
15595;SDS011;7898;48.658;9.068;2023-06-10T06:42:27;7.88;;;7.07;;
15595;SDS011;7898;48.658;9.068;2023-06-10T06:44:54;7.85;;;7.15;;
15595;SDS011;7898;48.658;9.068;2023-06-10T06:47:22;8.05;;;6.85;;
15595;SDS011;7898;48.658;9.068;2023-06-10T06:49:49;8.00;;;6.75;;
15595;SDS011;7898;48.658;9.068;2023-06-10T06:52:16;7.25;;;6.30;;
15595;SDS011;7898;48.658;9.068;2023-06-10T06:54:43;7.70;;;7.00;;
15595;SDS011;7898;48.658;9.068;2023-06-10T06:57:10;6.82;;;6.07;;
15595;SDS011;7898;48.658;9.068;2023-06-10T06:59:37;7.30;;;6.60;;
15595;SDS011;7898;48.658;9.068;2023-06-10T07:02:04;7.18;;;6.57;;
15595;SDS011;7898;48.658;9.068;2023-06-10T07:04:33;7.25;;;6.55;;
15595;SDS011;7898;48.658;9.068;2023-06-10T07:07:00;6.88;;;6.28;;
15595;SDS011;7898;48.658;9.068;2023-06-10T07:09:28;6.70;;;6.10;;
15595;SDS011;7898;48.658;9.068;2023-06-10T07:11:55;7.75;;;6.63;;
15595;SDS011;7898;48.658;9.068;2023-06-10T07:14:22;6.95;;;6.25;;
15595;SDS011;7898;48.658;9.068;2023-06-10T07:16:49;10.07;;;6.75;;
15595;SDS011;7898;48.658;9.068;2023-06-10T07:19:16;6.78;;;6.10;;
15595;SDS011;7898;48.658;9.068;2023-06-10T07:21:44;7.28;;;6.68;;
15595;SDS011;7898;48.658;9.068;2023-06-10T07:24:11;8.15;;;6.22;;
15595;SDS011;7898;48.658;9.068;2023-06-10T07:26:38;7.53;;;6.25;;
15595;SDS011;7898;48.658;9.068;2023-06-10T07:29:04;7.22;;;6.53;;
15595;SDS011;7898;48.658;9.068;2023-06-10T07:31:31;6.63;;;6.03;;
15595;SDS011;7898;48.658;9.068;2023-06-10T07:33:58;7.10;;;6.50;;
15595;SDS011;7898;48.658;9.068;2023-06-10T07:36:25;7.40;;;6.38;;
15595;SDS011;7898;48.658;9.068;2023-06-10T07:38:55;6.43;;;5.82;;
15595;SDS011;7898;48.658;9.068;2023-06-10T07:41:22;7.13;;;6.32;;
15595;SDS011;7898;48.658;9.068;2023-06-10T07:43:50;6.93;;;5.97;;
15595;SDS011;7898;48.658;9.068;2023-06-10T07:46:19;6.22;;;5.63;;
15595;SDS011;7898;48.658;9.068;2023-06-10T07:48:46;5.82;;;5.30;;
15595;SDS011;7898;48.658;9.068;2023-06-10T07:51:14;6.82;;;6.13;;
15595;SDS011;7898;48.658;9.068;2023-06-10T07:53:42;5.97;;;5.43;;
15595;SDS011;7898;48.658;9.068;2023-06-10T07:56:10;9.30;;;5.85;;
15595;SDS011;7898;48.658;9.068;2023-06-10T07:58:37;5.95;;;5.45;;
15595;SDS011;7898;48.658;9.068;2023-06-10T08:01:04;6.30;;;5.68;;
15595;SDS011;7898;48.658;9.068;2023-06-10T08:03:31;6.15;;;5.55;;
15595;SDS011;7898;48.658;9.068;2023-06-10T08:05:58;7.97;;;5.90;;
15595;SDS011;7898;48.658;9.068;2023-06-10T08:08:24;6.57;;;5.93;;
15595;SDS011;7898;48.658;9.068;2023-06-10T08:10:51;6.45;;;5.85;;
15595;SDS011;7898;48.658;9.068;2023-06-10T08:13:19;6.38;;;5.78;;
15595;SDS011;7898;48.658;9.068;2023-06-10T08:15:47;6.32;;;5.75;;
15595;SDS011;7898;48.658;9.068;2023-06-10T08:18:15;7.18;;;6.50;;
15595;SDS011;7898;48.658;9.068;2023-06-10T08:20:42;7.05;;;6.38;;
15595;SDS011;7898;48.658;9.068;2023-06-10T08:23:09;6.53;;;5.78;;
15595;SDS011;7898;48.658;9.068;2023-06-10T08:25:36;6.78;;;6.13;;
15595;SDS011;7898;48.658;9.068;2023-06-10T08:28:03;6.68;;;6.05;;
15595;SDS011;7898;48.658;9.068;2023-06-10T08:30:31;9.43;;;6.03;;
15595;SDS011;7898;48.658;9.068;2023-06-10T08:32:58;6.43;;;5.85;;
15595;SDS011;7898;48.658;9.068;2023-06-10T08:35:25;6.18;;;5.68;;
15595;SDS011;7898;48.658;9.068;2023-06-10T08:37:52;6.97;;;6.28;;
15595;SDS011;7898;48.658;9.068;2023-06-10T08:40:19;6.53;;;5.93;;
15595;SDS011;7898;48.658;9.068;2023-06-10T08:42:48;6.53;;;5.93;;
15595;SDS011;7898;48.658;9.068;2023-06-10T08:45:19;6.38;;;5.78;;
15595;SDS011;7898;48.658;9.068;2023-06-10T08:47:50;6.53;;;5.93;;
15595;SDS011;7898;48.658;9.068;2023-06-10T08:50:18;6.57;;;5.97;;
15595;SDS011;7898;48.658;9.068;2023-06-10T08:52:46;5.95;;;5.45;;
15595;SDS011;7898;48.658;9.068;2023-06-10T08:55:17;6.32;;;5.80;;
15595;SDS011;7898;48.658;9.068;2023-06-10T08:57:51;6.05;;;5.55;;
15595;SDS011;7898;48.658;9.068;2023-06-10T09:00:18;6.45;;;5.85;;
15595;SDS011;7898;48.658;9.068;2023-06-10T09:02:45;8.10;;;5.88;;
15595;SDS011;7898;48.658;9.068;2023-06-10T09:05:14;6.90;;;5.30;;
15595;SDS011;7898;48.658;9.068;2023-06-10T09:07:42;5.90;;;5.40;;
15595;SDS011;7898;48.658;9.068;2023-06-10T09:10:10;6.25;;;5.28;;
15595;SDS011;7898;48.658;9.068;2023-06-10T09:12:38;9.00;;;6.00;;
15595;SDS011;7898;48.658;9.068;2023-06-10T09:15:05;7.93;;;5.90;;
15595;SDS011;7898;48.658;9.068;2023-06-10T09:17:33;7.63;;;5.72;;
15595;SDS011;7898;48.658;9.068;2023-06-10T09:20:01;5.60;;;5.07;;
15595;SDS011;7898;48.658;9.068;2023-06-10T09:22:30;6.32;;;5.72;;
15595;SDS011;7898;48.658;9.068;2023-06-10T09:25:03;5.50;;;5.10;;
15595;SDS011;7898;48.658;9.068;2023-06-10T09:27:32;5.32;;;4.70;;
15595;SDS011;7898;48.658;9.068;2023-06-10T09:29:59;5.68;;;5.18;;
15595;SDS011;7898;48.658;9.068;2023-06-10T09:32:26;6.90;;;5.40;;
15595;SDS011;7898;48.658;9.068;2023-06-10T09:34:54;5.35;;;4.90;;
15595;SDS011;7898;48.658;9.068;2023-06-10T09:37:21;4.97;;;4.57;;
15595;SDS011;7898;48.658;9.068;2023-06-10T09:42:38;5.22;;;4.72;;
15595;SDS011;7898;48.658;9.068;2023-06-10T09:45:06;5.28;;;4.50;;
15595;SDS011;7898;48.658;9.068;2023-06-10T09:47:33;5.70;;;4.00;;
15595;SDS011;7898;48.658;9.068;2023-06-10T09:50:00;4.63;;;4.22;;
15595;SDS011;7898;48.658;9.068;2023-06-10T09:52:28;5.20;;;4.80;;
15595;SDS011;7898;48.658;9.068;2023-06-10T09:54:58;5.90;;;5.28;;
15595;SDS011;7898;48.658;9.068;2023-06-10T09:57:29;6.30;;;5.55;;
15595;SDS011;7898;48.658;9.068;2023-06-10T09:59:58;5.00;;;4.50;;
15595;SDS011;7898;48.658;9.068;2023-06-10T10:02:29;5.28;;;4.78;;
15595;SDS011;7898;48.658;9.068;2023-06-10T10:05:01;5.30;;;4.80;;
15595;SDS011;7898;48.658;9.068;2023-06-10T10:07:29;5.70;;;5.15;;
15595;SDS011;7898;48.658;9.068;2023-06-10T10:09:55;6.10;;;5.60;;
15595;SDS011;7898;48.658;9.068;2023-06-10T10:12:22;6.07;;;5.47;;
15595;SDS011;7898;48.658;9.068;2023-06-10T10:14:52;6.40;;;5.75;;
15595;SDS011;7898;48.658;9.068;2023-06-10T10:17:20;6.85;;;5.80;;
15595;SDS011;7898;48.658;9.068;2023-06-10T10:19:50;6.50;;;6.00;;
15595;SDS011;7898;48.658;9.068;2023-06-10T10:22:23;7.40;;;5.75;;
15595;SDS011;7898;48.658;9.068;2023-06-10T10:24:52;6.10;;;5.60;;
15595;SDS011;7898;48.658;9.068;2023-06-10T10:27:25;6.20;;;5.70;;
15595;SDS011;7898;48.658;9.068;2023-06-10T10:29:55;6.55;;;5.95;;
15595;SDS011;7898;48.658;9.068;2023-06-10T10:32:26;6.40;;;5.20;;
15595;SDS011;7898;48.658;9.068;2023-06-10T10:35:00;6.55;;;5.95;;
15595;SDS011;7898;48.658;9.068;2023-06-10T10:37:33;6.18;;;5.60;;
15595;SDS011;7898;48.658;9.068;2023-06-10T10:40:01;7.25;;;5.78;;
15595;SDS011;7898;48.658;9.068;2023-06-10T10:42:30;7.38;;;6.47;;
15595;SDS011;7898;48.658;9.068;2023-06-10T10:44:59;6.03;;;5.50;;
15595;SDS011;7898;48.658;9.068;2023-06-10T10:47:26;5.75;;;5.25;;
15595;SDS011;7898;48.658;9.068;2023-06-10T10:49:55;5.20;;;4.80;;
15595;SDS011;7898;48.658;9.068;2023-06-10T10:52:24;5.80;;;5.25;;
15595;SDS011;7898;48.658;9.068;2023-06-10T10:54:52;5.80;;;5.30;;
15595;SDS011;7898;48.658;9.068;2023-06-10T10:57:20;5.88;;;5.22;;
15595;SDS011;7898;48.658;9.068;2023-06-10T10:59:51;6.35;;;5.43;;
15595;SDS011;7898;48.658;9.068;2023-06-10T11:02:36;5.90;;;5.40;;
15595;SDS011;7898;48.658;9.068;2023-06-10T11:05:08;6.10;;;5.50;;
15595;SDS011;7898;48.658;9.068;2023-06-10T11:07:36;5.75;;;5.25;;
15595;SDS011;7898;48.658;9.068;2023-06-10T11:10:06;6.30;;;5.60;;
15595;SDS011;7898;48.658;9.068;2023-06-10T11:12:40;6.43;;;5.93;;
15595;SDS011;7898;48.658;9.068;2023-06-10T11:15:08;7.15;;;5.32;;
15595;SDS011;7898;48.658;9.068;2023-06-10T11:17:36;5.90;;;5.40;;
15595;SDS011;7898;48.658;9.068;2023-06-10T11:20:04;5.70;;;5.28;;
15595;SDS011;7898;48.658;9.068;2023-06-10T11:22:32;6.05;;;5.55;;
15595;SDS011;7898;48.658;9.068;2023-06-10T11:24:59;6.07;;;5.43;;
15595;SDS011;7898;48.658;9.068;2023-06-10T11:27:26;6.72;;;5.85;;
15595;SDS011;7898;48.658;9.068;2023-06-10T11:30:20;6.78;;;5.88;;
15595;SDS011;7898;48.658;9.068;2023-06-10T11:32:53;5.95;;;5.45;;
15595;SDS011;7898;48.658;9.068;2023-06-10T11:35:23;4.93;;;4.53;;
15595;SDS011;7898;48.658;9.068;2023-06-10T11:37:51;6.18;;;5.57;;
15595;SDS011;7898;48.658;9.068;2023-06-10T11:40:18;7.45;;;5.63;;
15595;SDS011;7898;48.658;9.068;2023-06-10T11:42:45;6.10;;;5.45;;
15595;SDS011;7898;48.658;9.068;2023-06-10T11:45:14;5.50;;;5.00;;
15595;SDS011;7898;48.658;9.068;2023-06-10T11:47:56;5.53;;;5.03;;
15595;SDS011;7898;48.658;9.068;2023-06-10T11:50:30;5.97;;;5.32;;
15595;SDS011;7898;48.658;9.068;2023-06-10T11:52:57;5.50;;;5.10;;
15595;SDS011;7898;48.658;9.068;2023-06-10T11:55:25;5.95;;;5.43;;
15595;SDS011;7898;48.658;9.068;2023-06-10T11:57:52;7.53;;;5.35;;
15595;SDS011;7898;48.658;9.068;2023-06-10T12:00:22;5.40;;;4.57;;
15595;SDS011;7898;48.658;9.068;2023-06-10T12:02:55;5.55;;;5.05;;
15595;SDS011;7898;48.658;9.068;2023-06-10T12:05:23;5.55;;;5.07;;
15595;SDS011;7898;48.658;9.068;2023-06-10T12:10:38;5.53;;;5.03;;
15595;SDS011;7898;48.658;9.068;2023-06-10T12:13:06;5.22;;;4.72;;
15595;SDS011;7898;48.658;9.068;2023-06-10T12:15:34;4.75;;;4.35;;
15595;SDS011;7898;48.658;9.068;2023-06-10T12:18:02;5.13;;;4.72;;
15595;SDS011;7898;48.658;9.068;2023-06-10T12:20:30;5.35;;;4.90;;
15595;SDS011;7898;48.658;9.068;2023-06-10T12:22:58;4.80;;;4.40;;
15595;SDS011;7898;48.658;9.068;2023-06-10T12:25:26;5.25;;;4.75;;
15595;SDS011;7898;48.658;9.068;2023-06-10T12:27:55;5.53;;;5.03;;
15595;SDS011;7898;48.658;9.068;2023-06-10T12:30:24;4.85;;;4.45;;
15595;SDS011;7898;48.658;9.068;2023-06-10T12:32:52;5.05;;;4.65;;
15595;SDS011;7898;48.658;9.068;2023-06-10T12:35:21;5.28;;;4.78;;
15595;SDS011;7898;48.658;9.068;2023-06-10T12:37:57;5.10;;;4.70;;
15595;SDS011;7898;48.658;9.068;2023-06-10T12:40:26;7.43;;;4.70;;
15595;SDS011;7898;48.658;9.068;2023-06-10T12:42:53;7.70;;;5.15;;
15595;SDS011;7898;48.658;9.068;2023-06-10T12:45:26;6.25;;;5.65;;
15595;SDS011;7898;48.658;9.068;2023-06-10T12:48:03;5.72;;;5.22;;
15595;SDS011;7898;48.658;9.068;2023-06-10T12:50:34;5.43;;;4.93;;
15595;SDS011;7898;48.658;9.068;2023-06-10T12:53:02;5.20;;;4.80;;
15595;SDS011;7898;48.658;9.068;2023-06-10T12:55:29;5.97;;;5.47;;
15595;SDS011;7898;48.658;9.068;2023-06-10T12:57:56;5.40;;;4.90;;
15595;SDS011;7898;48.658;9.068;2023-06-10T13:00:23;5.88;;;5.28;;
15595;SDS011;7898;48.658;9.068;2023-06-10T13:02:51;6.15;;;5.65;;
15595;SDS011;7898;48.658;9.068;2023-06-10T13:05:19;6.70;;;5.50;;
15595;SDS011;7898;48.658;9.068;2023-06-10T13:07:47;6.38;;;5.72;;
15595;SDS011;7898;48.658;9.068;2023-06-10T13:10:15;7.45;;;5.40;;
15595;SDS011;7898;48.658;9.068;2023-06-10T13:12:43;5.57;;;5.07;;
15595;SDS011;7898;48.658;9.068;2023-06-10T13:15:11;5.20;;;4.80;;
15595;SDS011;7898;48.658;9.068;2023-06-10T13:17:39;5.60;;;5.10;;
15595;SDS011;7898;48.658;9.068;2023-06-10T13:20:08;5.25;;;4.78;;
15595;SDS011;7898;48.658;9.068;2023-06-10T13:22:35;5.30;;;4.90;;
15595;SDS011;7898;48.658;9.068;2023-06-10T13:25:04;5.68;;;5.18;;
15595;SDS011;7898;48.658;9.068;2023-06-10T13:27:33;5.55;;;5.05;;
15595;SDS011;7898;48.658;9.068;2023-06-10T13:30:00;5.28;;;4.88;;
15595;SDS011;7898;48.658;9.068;2023-06-10T13:32:26;5.00;;;4.60;;
15595;SDS011;7898;48.658;9.068;2023-06-10T13:34:53;5.85;;;4.80;;
15595;SDS011;7898;48.658;9.068;2023-06-10T13:37:22;5.05;;;4.57;;
15595;SDS011;7898;48.658;9.068;2023-06-10T13:39:48;5.75;;;4.55;;
15595;SDS011;7898;48.658;9.068;2023-06-10T13:42:17;5.40;;;4.70;;
15595;SDS011;7898;48.658;9.068;2023-06-10T13:44:44;5.45;;;4.75;;
15595;SDS011;7898;48.658;9.068;2023-06-10T13:47:12;4.85;;;4.45;;
15595;SDS011;7898;48.658;9.068;2023-06-10T13:49:39;5.60;;;5.10;;
15595;SDS011;7898;48.658;9.068;2023-06-10T13:52:06;6.45;;;5.80;;
15595;SDS011;7898;48.658;9.068;2023-06-10T13:54:34;5.70;;;5.20;;
15595;SDS011;7898;48.658;9.068;2023-06-10T13:57:02;6.22;;;5.72;;
15595;SDS011;7898;48.658;9.068;2023-06-10T13:59:30;5.97;;;5.40;;
15595;SDS011;7898;48.658;9.068;2023-06-10T14:01:57;6.18;;;5.13;;
15595;SDS011;7898;48.658;9.068;2023-06-10T14:04:24;5.70;;;5.20;;
15595;SDS011;7898;48.658;9.068;2023-06-10T14:06:51;6.88;;;5.45;;
15595;SDS011;7898;48.658;9.068;2023-06-10T14:09:17;5.57;;;5.07;;
15595;SDS011;7898;48.658;9.068;2023-06-10T14:11:45;5.75;;;5.18;;
15595;SDS011;7898;48.658;9.068;2023-06-10T14:14:12;5.28;;;4.78;;
15595;SDS011;7898;48.658;9.068;2023-06-10T14:16:41;6.15;;;5.10;;
15595;SDS011;7898;48.658;9.068;2023-06-10T14:19:08;5.97;;;5.30;;
15595;SDS011;7898;48.658;9.068;2023-06-10T14:21:36;5.75;;;5.25;;
15595;SDS011;7898;48.658;9.068;2023-06-10T14:24:03;5.78;;;5.28;;
15595;SDS011;7898;48.658;9.068;2023-06-10T14:26:30;5.82;;;5.32;;
15595;SDS011;7898;48.658;9.068;2023-06-10T14:28:58;6.47;;;5.15;;
15595;SDS011;7898;48.658;9.068;2023-06-10T14:31:25;5.47;;;4.97;;
15595;SDS011;7898;48.658;9.068;2023-06-10T14:33:53;6.07;;;5.13;;
15595;SDS011;7898;48.658;9.068;2023-06-10T14:36:20;5.70;;;5.05;;
15595;SDS011;7898;48.658;9.068;2023-06-10T14:38:46;5.38;;;4.88;;
15595;SDS011;7898;48.658;9.068;2023-06-10T14:41:13;6.00;;;5.47;;
15595;SDS011;7898;48.658;9.068;2023-06-10T14:43:40;5.55;;;4.97;;
15595;SDS011;7898;48.658;9.068;2023-06-10T14:46:07;5.15;;;4.57;;
15595;SDS011;7898;48.658;9.068;2023-06-10T14:48:34;5.15;;;4.65;;
15595;SDS011;7898;48.658;9.068;2023-06-10T14:51:02;5.57;;;5.07;;
15595;SDS011;7898;48.658;9.068;2023-06-10T14:53:29;5.45;;;4.68;;
15595;SDS011;7898;48.658;9.068;2023-06-10T14:55:56;6.30;;;5.20;;
15595;SDS011;7898;48.658;9.068;2023-06-10T14:58:23;5.10;;;4.70;;
15595;SDS011;7898;48.658;9.068;2023-06-10T15:00:50;4.78;;;4.47;;